Aviation Digital Data Service (ADDS)

Output produced by METARs form (1731 UTC 18 January 2018)
found at http://aviationweather.gov/adds/metars/
 
KHDC 181138Z 1812/1912 02004KT P6SM SKC